sensor_id;sensor_type;location;lat;lon;timestamp;P1;durP1;ratioP1;P2;durP2;ratioP2
45842;SDS011;31563;51.744;8.252;2023-06-10T00:00:11;6.05;;;5.55;;
45842;SDS011;31563;51.744;8.252;2023-06-10T00:02:41;5.32;;;4.93;;
45842;SDS011;31563;51.744;8.252;2023-06-10T00:05:10;5.90;;;5.32;;
45842;SDS011;31563;51.744;8.252;2023-06-10T00:07:38;5.85;;;5.20;;
45842;SDS011;31563;51.744;8.252;2023-06-10T00:10:08;5.90;;;5.32;;
45842;SDS011;31563;51.744;8.252;2023-06-10T00:12:38;6.10;;;5.55;;
45842;SDS011;31563;51.744;8.252;2023-06-10T00:15:08;5.85;;;5.35;;
45842;SDS011;31563;51.744;8.252;2023-06-10T00:20:07;6.00;;;5.50;;
45842;SDS011;31563;51.744;8.252;2023-06-10T00:22:39;5.70;;;5.28;;
45842;SDS011;31563;51.744;8.252;2023-06-10T00:25:08;5.82;;;5.22;;
45842;SDS011;31563;51.744;8.252;2023-06-10T00:27:38;5.65;;;5.25;;
45842;SDS011;31563;51.744;8.252;2023-06-10T00:30:07;5.70;;;5.20;;
45842;SDS011;31563;51.744;8.252;2023-06-10T00:32:36;5.72;;;5.18;;
45842;SDS011;31563;51.744;8.252;2023-06-10T00:35:05;6.03;;;5.47;;
45842;SDS011;31563;51.744;8.252;2023-06-10T00:40:03;6.10;;;5.60;;
45842;SDS011;31563;51.744;8.252;2023-06-10T00:42:32;5.68;;;5.22;;
45842;SDS011;31563;51.744;8.252;2023-06-10T00:45:01;5.72;;;5.25;;
45842;SDS011;31563;51.744;8.252;2023-06-10T00:47:30;5.20;;;4.80;;
45842;SDS011;31563;51.744;8.252;2023-06-10T00:49:58;5.97;;;5.47;;
45842;SDS011;31563;51.744;8.252;2023-06-10T00:52:28;6.32;;;5.75;;
45842;SDS011;31563;51.744;8.252;2023-06-10T00:54:57;5.80;;;5.30;;
45842;SDS011;31563;51.744;8.252;2023-06-10T00:57:26;4.97;;;4.57;;
45842;SDS011;31563;51.744;8.252;2023-06-10T00:59:55;5.20;;;4.80;;
45842;SDS011;31563;51.744;8.252;2023-06-10T01:02:26;5.47;;;4.97;;
45842;SDS011;31563;51.744;8.252;2023-06-10T01:04:55;5.60;;;5.20;;
45842;SDS011;31563;51.744;8.252;2023-06-10T01:07:25;5.03;;;4.63;;
45842;SDS011;31563;51.744;8.252;2023-06-10T01:10:04;5.95;;;5.07;;
45842;SDS011;31563;51.744;8.252;2023-06-10T01:12:37;5.25;;;4.80;;
45842;SDS011;31563;51.744;8.252;2023-06-10T01:15:09;5.60;;;5.20;;
45842;SDS011;31563;51.744;8.252;2023-06-10T01:20:26;5.80;;;5.40;;
45842;SDS011;31563;51.744;8.252;2023-06-10T01:22:56;5.22;;;4.82;;
45842;SDS011;31563;51.744;8.252;2023-06-10T01:25:26;5.25;;;4.85;;
45842;SDS011;31563;51.744;8.252;2023-06-10T01:27:58;5.68;;;5.20;;
45842;SDS011;31563;51.744;8.252;2023-06-10T01:30:35;5.88;;;5.38;;
45842;SDS011;31563;51.744;8.252;2023-06-10T01:33:16;5.72;;;5.32;;
45842;SDS011;31563;51.744;8.252;2023-06-10T01:35:49;5.80;;;5.30;;
45842;SDS011;31563;51.744;8.252;2023-06-10T01:38:20;6.97;;;5.78;;
45842;SDS011;31563;51.744;8.252;2023-06-10T01:40:50;5.82;;;5.07;;
45842;SDS011;31563;51.744;8.252;2023-06-10T01:43:20;6.28;;;5.70;;
45842;SDS011;31563;51.744;8.252;2023-06-10T01:45:48;6.72;;;5.30;;
45842;SDS011;31563;51.744;8.252;2023-06-10T01:48:16;6.00;;;5.43;;
45842;SDS011;31563;51.744;8.252;2023-06-10T01:50:45;5.47;;;4.97;;
45842;SDS011;31563;51.744;8.252;2023-06-10T01:53:13;5.85;;;5.15;;
45842;SDS011;31563;51.744;8.252;2023-06-10T01:55:42;5.85;;;5.35;;
45842;SDS011;31563;51.744;8.252;2023-06-10T01:58:11;6.18;;;5.57;;
45842;SDS011;31563;51.744;8.252;2023-06-10T02:00:39;6.13;;;5.63;;
45842;SDS011;31563;51.744;8.252;2023-06-10T02:03:07;5.55;;;5.05;;
45842;SDS011;31563;51.744;8.252;2023-06-10T02:05:36;5.63;;;5.13;;
45842;SDS011;31563;51.744;8.252;2023-06-10T02:08:04;6.75;;;5.35;;
45842;SDS011;31563;51.744;8.252;2023-06-10T02:10:33;6.40;;;5.17;;
45842;SDS011;31563;51.744;8.252;2023-06-10T02:13:02;5.90;;;5.40;;
45842;SDS011;31563;51.744;8.252;2023-06-10T02:15:31;6.00;;;5.50;;
45842;SDS011;31563;51.744;8.252;2023-06-10T02:17:59;5.97;;;5.30;;
45842;SDS011;31563;51.744;8.252;2023-06-10T02:20:29;6.00;;;5.50;;
45842;SDS011;31563;51.744;8.252;2023-06-10T02:22:57;5.93;;;5.50;;
45842;SDS011;31563;51.744;8.252;2023-06-10T02:25:26;5.85;;;5.43;;
45842;SDS011;31563;51.744;8.252;2023-06-10T02:27:54;5.53;;;5.13;;
45842;SDS011;31563;51.744;8.252;2023-06-10T02:30:24;5.32;;;4.90;;
45842;SDS011;31563;51.744;8.252;2023-06-10T02:32:52;5.65;;;5.15;;
45842;SDS011;31563;51.744;8.252;2023-06-10T02:35:22;5.50;;;5.00;;
45842;SDS011;31563;51.744;8.252;2023-06-10T02:37:51;6.20;;;5.70;;
45842;SDS011;31563;51.744;8.252;2023-06-10T02:40:19;5.47;;;5.07;;
45842;SDS011;31563;51.744;8.252;2023-06-10T02:42:47;5.78;;;5.28;;
45842;SDS011;31563;51.744;8.252;2023-06-10T02:45:16;5.70;;;5.05;;
45842;SDS011;31563;51.744;8.252;2023-06-10T02:47:45;5.40;;;4.97;;
45842;SDS011;31563;51.744;8.252;2023-06-10T02:52:41;5.68;;;5.18;;
45842;SDS011;31563;51.744;8.252;2023-06-10T02:55:09;5.63;;;5.18;;
45842;SDS011;31563;51.744;8.252;2023-06-10T02:57:38;5.75;;;5.25;;
45842;SDS011;31563;51.744;8.252;2023-06-10T03:00:06;5.53;;;5.03;;
45842;SDS011;31563;51.744;8.252;2023-06-10T03:02:37;6.20;;;5.60;;
45842;SDS011;31563;51.744;8.252;2023-06-10T03:05:07;6.28;;;5.70;;
45842;SDS011;31563;51.744;8.252;2023-06-10T03:07:37;5.68;;;5.18;;
45842;SDS011;31563;51.744;8.252;2023-06-10T03:10:06;5.65;;;5.20;;
45842;SDS011;31563;51.744;8.252;2023-06-10T03:12:35;5.43;;;4.93;;
45842;SDS011;31563;51.744;8.252;2023-06-10T03:15:03;5.93;;;5.32;;
45842;SDS011;31563;51.744;8.252;2023-06-10T03:17:33;5.43;;;5.03;;
45842;SDS011;31563;51.744;8.252;2023-06-10T03:20:01;5.70;;;5.20;;
45842;SDS011;31563;51.744;8.252;2023-06-10T03:22:33;5.22;;;4.82;;
45842;SDS011;31563;51.744;8.252;2023-06-10T03:27:29;5.38;;;4.97;;
45842;SDS011;31563;51.744;8.252;2023-06-10T03:29:57;6.13;;;5.65;;
45842;SDS011;31563;51.744;8.252;2023-06-10T03:32:26;5.53;;;5.03;;
45842;SDS011;31563;51.744;8.252;2023-06-10T03:34:54;5.60;;;5.10;;
45842;SDS011;31563;51.744;8.252;2023-06-10T03:37:23;5.60;;;5.03;;
45842;SDS011;31563;51.744;8.252;2023-06-10T03:39:53;5.97;;;5.47;;
45842;SDS011;31563;51.744;8.252;2023-06-10T03:42:21;5.90;;;5.20;;
45842;SDS011;31563;51.744;8.252;2023-06-10T03:44:49;5.43;;;4.97;;
45842;SDS011;31563;51.744;8.252;2023-06-10T03:47:17;5.68;;;4.90;;
45842;SDS011;31563;51.744;8.252;2023-06-10T03:49:46;5.70;;;5.05;;
45842;SDS011;31563;51.744;8.252;2023-06-10T03:52:14;5.97;;;5.47;;
45842;SDS011;31563;51.744;8.252;2023-06-10T03:54:42;5.05;;;4.65;;
45842;SDS011;31563;51.744;8.252;2023-06-10T03:57:12;5.65;;;5.15;;
45842;SDS011;31563;51.744;8.252;2023-06-10T04:02:08;5.30;;;4.90;;
45842;SDS011;31563;51.744;8.252;2023-06-10T04:04:36;5.40;;;5.00;;
45842;SDS011;31563;51.744;8.252;2023-06-10T04:07:04;5.18;;;4.78;;
45842;SDS011;31563;51.744;8.252;2023-06-10T04:09:32;5.68;;;5.00;;
45842;SDS011;31563;51.744;8.252;2023-06-10T04:12:02;5.32;;;4.65;;
45842;SDS011;31563;51.744;8.252;2023-06-10T04:14:33;5.07;;;4.35;;
45842;SDS011;31563;51.744;8.252;2023-06-10T04:17:03;5.22;;;4.45;;
45842;SDS011;31563;51.744;8.252;2023-06-10T04:19:33;5.32;;;4.55;;
45842;SDS011;31563;51.744;8.252;2023-06-10T04:22:01;4.97;;;4.40;;
45842;SDS011;31563;51.744;8.252;2023-06-10T04:24:30;9.05;;;4.63;;
45842;SDS011;31563;51.744;8.252;2023-06-10T04:26:58;6.70;;;5.38;;
45842;SDS011;31563;51.744;8.252;2023-06-10T04:29:26;5.22;;;4.38;;
45842;SDS011;31563;51.744;8.252;2023-06-10T04:31:56;6.15;;;4.28;;
45842;SDS011;31563;51.744;8.252;2023-06-10T04:36:53;5.68;;;4.22;;
45842;SDS011;31563;51.744;8.252;2023-06-10T04:39:21;6.07;;;4.88;;
45842;SDS011;31563;51.744;8.252;2023-06-10T04:41:50;5.07;;;4.40;;
45842;SDS011;31563;51.744;8.252;2023-06-10T04:44:18;6.15;;;4.45;;
45842;SDS011;31563;51.744;8.252;2023-06-10T04:46:46;5.43;;;4.00;;
45842;SDS011;31563;51.744;8.252;2023-06-10T04:49:16;6.30;;;4.30;;
45842;SDS011;31563;51.744;8.252;2023-06-10T04:51:44;6.28;;;4.57;;
45842;SDS011;31563;51.744;8.252;2023-06-10T04:54:12;5.13;;;3.92;;
45842;SDS011;31563;51.744;8.252;2023-06-10T04:56:41;6.07;;;4.37;;
45842;SDS011;31563;51.744;8.252;2023-06-10T04:59:09;4.85;;;4.10;;
45842;SDS011;31563;51.744;8.252;2023-06-10T05:01:38;7.30;;;4.47;;
45842;SDS011;31563;51.744;8.252;2023-06-10T05:04:06;6.20;;;4.70;;
45842;SDS011;31563;51.744;8.252;2023-06-10T05:06:35;6.72;;;4.50;;
45842;SDS011;31563;51.744;8.252;2023-06-10T05:09:04;4.90;;;4.32;;
45842;SDS011;31563;51.744;8.252;2023-06-10T05:11:32;5.18;;;4.38;;
45842;SDS011;31563;51.744;8.252;2023-06-10T05:14:00;5.15;;;4.00;;
45842;SDS011;31563;51.744;8.252;2023-06-10T05:16:28;5.00;;;3.85;;
45842;SDS011;31563;51.744;8.252;2023-06-10T05:18:56;4.85;;;4.03;;
45842;SDS011;31563;51.744;8.252;2023-06-10T05:21:24;5.53;;;4.18;;
45842;SDS011;31563;51.744;8.252;2023-06-10T05:23:54;4.13;;;3.70;;
45842;SDS011;31563;51.744;8.252;2023-06-10T05:28:51;8.10;;;3.58;;
45842;SDS011;31563;51.744;8.252;2023-06-10T05:31:20;6.53;;;4.35;;
45842;SDS011;31563;51.744;8.252;2023-06-10T05:33:48;5.38;;;3.50;;
45842;SDS011;31563;51.744;8.252;2023-06-10T05:36:16;4.68;;;4.20;;
45842;SDS011;31563;51.744;8.252;2023-06-10T05:38:44;5.43;;;3.90;;
45842;SDS011;31563;51.744;8.252;2023-06-10T05:41:15;4.22;;;3.72;;
45842;SDS011;31563;51.744;8.252;2023-06-10T05:43:43;4.85;;;3.75;;
45842;SDS011;31563;51.744;8.252;2023-06-10T05:46:12;5.13;;;3.60;;
45842;SDS011;31563;51.744;8.252;2023-06-10T05:48:40;6.63;;;4.13;;
45842;SDS011;31563;51.744;8.252;2023-06-10T05:51:08;6.10;;;3.55;;
45842;SDS011;31563;51.744;8.252;2023-06-10T05:53:37;9.88;;;4.20;;
45842;SDS011;31563;51.744;8.252;2023-06-10T05:56:06;4.32;;;3.10;;
45842;SDS011;31563;51.744;8.252;2023-06-10T05:58:36;5.65;;;3.45;;
45842;SDS011;31563;51.744;8.252;2023-06-10T06:01:04;7.82;;;3.67;;
45842;SDS011;31563;51.744;8.252;2023-06-10T06:03:32;6.80;;;4.10;;
45842;SDS011;31563;51.744;8.252;2023-06-10T06:06:00;6.18;;;3.20;;
45842;SDS011;31563;51.744;8.252;2023-06-10T06:08:29;5.17;;;3.60;;
45842;SDS011;31563;51.744;8.252;2023-06-10T06:10:57;5.95;;;3.83;;
45842;SDS011;31563;51.744;8.252;2023-06-10T06:13:26;4.50;;;3.75;;
45842;SDS011;31563;51.744;8.252;2023-06-10T06:15:55;5.50;;;3.95;;
45842;SDS011;31563;51.744;8.252;2023-06-10T06:20:51;6.30;;;3.75;;
45842;SDS011;31563;51.744;8.252;2023-06-10T06:23:20;4.75;;;3.42;;
45842;SDS011;31563;51.744;8.252;2023-06-10T06:25:48;8.65;;;4.35;;
45842;SDS011;31563;51.744;8.252;2023-06-10T06:28:16;5.22;;;3.75;;
45842;SDS011;31563;51.744;8.252;2023-06-10T06:30:45;4.68;;;3.75;;
45842;SDS011;31563;51.744;8.252;2023-06-10T06:33:15;4.20;;;3.05;;
45842;SDS011;31563;51.744;8.252;2023-06-10T06:38:11;5.82;;;3.50;;
45842;SDS011;31563;51.744;8.252;2023-06-10T06:40:39;5.35;;;3.90;;
45842;SDS011;31563;51.744;8.252;2023-06-10T06:43:07;5.50;;;3.65;;
45842;SDS011;31563;51.744;8.252;2023-06-10T06:45:36;4.10;;;3.35;;
45842;SDS011;31563;51.744;8.252;2023-06-10T06:48:04;4.40;;;3.22;;
45842;SDS011;31563;51.744;8.252;2023-06-10T06:50:34;5.60;;;3.60;;
45842;SDS011;31563;51.744;8.252;2023-06-10T06:53:03;4.78;;;3.15;;
45842;SDS011;31563;51.744;8.252;2023-06-10T06:55:31;5.22;;;3.45;;
45842;SDS011;31563;51.744;8.252;2023-06-10T06:57:59;4.97;;;3.55;;
45842;SDS011;31563;51.744;8.252;2023-06-10T07:00:30;5.43;;;3.50;;
45842;SDS011;31563;51.744;8.252;2023-06-10T07:02:59;5.60;;;3.28;;
45842;SDS011;31563;51.744;8.252;2023-06-10T07:05:27;4.70;;;3.38;;
45842;SDS011;31563;51.744;8.252;2023-06-10T07:07:58;4.65;;;2.90;;
45842;SDS011;31563;51.744;8.252;2023-06-10T07:12:55;4.93;;;3.47;;
45842;SDS011;31563;51.744;8.252;2023-06-10T07:15:24;4.80;;;3.08;;
45842;SDS011;31563;51.744;8.252;2023-06-10T07:17:52;5.20;;;3.40;;
45842;SDS011;31563;51.744;8.252;2023-06-10T07:20:20;4.50;;;3.50;;
45842;SDS011;31563;51.744;8.252;2023-06-10T07:22:48;3.35;;;2.90;;
45842;SDS011;31563;51.744;8.252;2023-06-10T07:25:18;3.30;;;3.00;;
45842;SDS011;31563;51.744;8.252;2023-06-10T07:27:46;5.60;;;3.08;;
45842;SDS011;31563;51.744;8.252;2023-06-10T07:30:14;4.70;;;3.22;;
45842;SDS011;31563;51.744;8.252;2023-06-10T07:32:43;3.95;;;3.05;;
45842;SDS011;31563;51.744;8.252;2023-06-10T07:35:11;4.43;;;2.90;;
45842;SDS011;31563;51.744;8.252;2023-06-10T07:37:39;6.20;;;3.00;;
45842;SDS011;31563;51.744;8.252;2023-06-10T07:40:08;5.07;;;3.10;;
45842;SDS011;31563;51.744;8.252;2023-06-10T07:42:38;4.00;;;3.13;;
45842;SDS011;31563;51.744;8.252;2023-06-10T07:47:35;8.80;;;4.00;;
45842;SDS011;31563;51.744;8.252;2023-06-10T07:50:03;10.25;;;5.18;;
45842;SDS011;31563;51.744;8.252;2023-06-10T07:52:32;6.93;;;3.47;;
45842;SDS011;31563;51.744;8.252;2023-06-10T07:55:00;7.93;;;2.90;;
45842;SDS011;31563;51.744;8.252;2023-06-10T07:57:28;5.93;;;3.78;;
45842;SDS011;31563;51.744;8.252;2023-06-10T07:59:59;3.95;;;2.97;;
45842;SDS011;31563;51.744;8.252;2023-06-10T08:02:29;5.45;;;3.10;;
45842;SDS011;31563;51.744;8.252;2023-06-10T08:04:58;5.60;;;3.78;;
45842;SDS011;31563;51.744;8.252;2023-06-10T08:07:26;4.93;;;3.10;;
45842;SDS011;31563;51.744;8.252;2023-06-10T08:09:54;3.30;;;3.00;;
45842;SDS011;31563;51.744;8.252;2023-06-10T08:12:23;5.50;;;3.40;;
45842;SDS011;31563;51.744;8.252;2023-06-10T08:14:51;4.32;;;3.28;;
45842;SDS011;31563;51.744;8.252;2023-06-10T08:17:21;6.30;;;3.50;;
45842;SDS011;31563;51.744;8.252;2023-06-10T08:19:49;4.03;;;3.63;;
45842;SDS011;31563;51.744;8.252;2023-06-10T08:22:18;5.47;;;3.05;;
45842;SDS011;31563;51.744;8.252;2023-06-10T08:24:46;5.88;;;2.92;;
45842;SDS011;31563;51.744;8.252;2023-06-10T08:27:14;4.07;;;3.30;;
45842;SDS011;31563;51.744;8.252;2023-06-10T08:29:43;4.65;;;3.10;;
45842;SDS011;31563;51.744;8.252;2023-06-10T08:32:11;4.28;;;2.88;;
45842;SDS011;31563;51.744;8.252;2023-06-10T08:34:40;6.07;;;3.67;;
45842;SDS011;31563;51.744;8.252;2023-06-10T08:39:36;5.25;;;3.10;;
45842;SDS011;31563;51.744;8.252;2023-06-10T08:42:09;4.90;;;3.65;;
45842;SDS011;31563;51.744;8.252;2023-06-10T08:44:45;5.55;;;3.72;;
45842;SDS011;31563;51.744;8.252;2023-06-10T08:47:14;6.30;;;3.20;;
45842;SDS011;31563;51.744;8.252;2023-06-10T08:49:45;4.03;;;3.08;;
45842;SDS011;31563;51.744;8.252;2023-06-10T08:52:15;4.95;;;3.58;;
45842;SDS011;31563;51.744;8.252;2023-06-10T08:54:46;4.53;;;3.42;;
45842;SDS011;31563;51.744;8.252;2023-06-10T08:57:19;6.25;;;3.58;;
45842;SDS011;31563;51.744;8.252;2023-06-10T08:59:48;4.88;;;3.65;;
45842;SDS011;31563;51.744;8.252;2023-06-10T09:02:16;6.85;;;3.33;;
45842;SDS011;31563;51.744;8.252;2023-06-10T09:04:48;6.05;;;3.45;;
45842;SDS011;31563;51.744;8.252;2023-06-10T09:07:17;5.28;;;3.10;;
45842;SDS011;31563;51.744;8.252;2023-06-10T09:09:45;6.77;;;3.43;;
45842;SDS011;31563;51.744;8.252;2023-06-10T09:12:14;3.72;;;3.35;;
45842;SDS011;31563;51.744;8.252;2023-06-10T09:14:42;5.45;;;3.38;;
45842;SDS011;31563;51.744;8.252;2023-06-10T09:17:11;4.95;;;3.30;;
45842;SDS011;31563;51.744;8.252;2023-06-10T09:19:39;4.30;;;3.47;;
45842;SDS011;31563;51.744;8.252;2023-06-10T09:22:10;4.45;;;3.72;;
45842;SDS011;31563;51.744;8.252;2023-06-10T09:24:38;4.10;;;3.20;;
45842;SDS011;31563;51.744;8.252;2023-06-10T09:27:08;4.40;;;3.60;;
45842;SDS011;31563;51.744;8.252;2023-06-10T09:29:46;3.80;;;3.40;;
45842;SDS011;31563;51.744;8.252;2023-06-10T09:32:15;3.30;;;3.00;;
45842;SDS011;31563;51.744;8.252;2023-06-10T09:34:45;4.35;;;3.75;;
45842;SDS011;31563;51.744;8.252;2023-06-10T09:37:20;4.38;;;3.42;;
45842;SDS011;31563;51.744;8.252;2023-06-10T09:40:02;4.95;;;4.30;;
45842;SDS011;31563;51.744;8.252;2023-06-10T09:42:32;4.07;;;3.17;;
45842;SDS011;31563;51.744;8.252;2023-06-10T09:45:02;7.30;;;3.42;;
45842;SDS011;31563;51.744;8.252;2023-06-10T09:47:30;5.83;;;3.40;;
45842;SDS011;31563;51.744;8.252;2023-06-10T09:49:59;5.28;;;4.03;;
45842;SDS011;31563;51.744;8.252;2023-06-10T09:52:29;4.97;;;3.50;;
45842;SDS011;31563;51.744;8.252;2023-06-10T09:55:00;4.50;;;3.30;;
45842;SDS011;31563;51.744;8.252;2023-06-10T09:57:30;4.55;;;3.10;;
45842;SDS011;31563;51.744;8.252;2023-06-10T10:00:03;5.63;;;3.20;;
45842;SDS011;31563;51.744;8.252;2023-06-10T10:02:36;5.75;;;3.58;;
45842;SDS011;31563;51.744;8.252;2023-06-10T10:05:13;5.97;;;3.40;;
45842;SDS011;31563;51.744;8.252;2023-06-10T10:10:13;5.72;;;3.58;;
45842;SDS011;31563;51.744;8.252;2023-06-10T10:12:42;6.22;;;3.65;;
45842;SDS011;31563;51.744;8.252;2023-06-10T10:15:12;7.45;;;3.70;;
45842;SDS011;31563;51.744;8.252;2023-06-10T10:17:42;10.48;;;3.88;;
45842;SDS011;31563;51.744;8.252;2023-06-10T10:20:17;5.75;;;3.72;;
45842;SDS011;31563;51.744;8.252;2023-06-10T10:22:51;6.55;;;3.65;;
45842;SDS011;31563;51.744;8.252;2023-06-10T10:25:22;6.65;;;3.75;;
45842;SDS011;31563;51.744;8.252;2023-06-10T10:27:58;6.47;;;3.25;;
45842;SDS011;31563;51.744;8.252;2023-06-10T10:30:39;7.45;;;3.70;;
45842;SDS011;31563;51.744;8.252;2023-06-10T10:33:11;8.00;;;3.67;;
45842;SDS011;31563;51.744;8.252;2023-06-10T10:35:43;4.25;;;2.70;;
45842;SDS011;31563;51.744;8.252;2023-06-10T10:38:14;5.30;;;2.50;;
45842;SDS011;31563;51.744;8.252;2023-06-10T10:40:44;4.00;;;2.60;;
45842;SDS011;31563;51.744;8.252;2023-06-10T10:43:13;4.82;;;2.78;;
45842;SDS011;31563;51.744;8.252;2023-06-10T10:45:44;6.60;;;3.10;;
45842;SDS011;31563;51.744;8.252;2023-06-10T10:48:13;4.40;;;3.00;;
45842;SDS011;31563;51.744;8.252;2023-06-10T10:50:42;6.25;;;3.15;;
45842;SDS011;31563;51.744;8.252;2023-06-10T10:53:10;3.45;;;3.00;;
45842;SDS011;31563;51.744;8.252;2023-06-10T10:55:39;3.30;;;2.85;;
45842;SDS011;31563;51.744;8.252;2023-06-10T10:58:08;3.88;;;2.50;;
45842;SDS011;31563;51.744;8.252;2023-06-10T11:00:43;3.88;;;2.80;;
45842;SDS011;31563;51.744;8.252;2023-06-10T11:05:43;6.00;;;3.00;;
45842;SDS011;31563;51.744;8.252;2023-06-10T11:08:15;3.75;;;3.38;;
45842;SDS011;31563;51.744;8.252;2023-06-10T11:11:18;4.10;;;3.30;;
45842;SDS011;31563;51.744;8.252;2023-06-10T11:13:57;5.53;;;3.50;;
45842;SDS011;31563;51.744;8.252;2023-06-10T11:16:27;4.32;;;2.97;;
45842;SDS011;31563;51.744;8.252;2023-06-10T11:18:56;3.78;;;3.03;;
45842;SDS011;31563;51.744;8.252;2023-06-10T11:21:24;3.67;;;3.00;;
45842;SDS011;31563;51.744;8.252;2023-06-10T11:23:57;3.63;;;3.13;;
45842;SDS011;31563;51.744;8.252;2023-06-10T11:26:33;3.75;;;2.88;;
45842;SDS011;31563;51.744;8.252;2023-06-10T11:29:05;5.03;;;3.10;;
45842;SDS011;31563;51.744;8.252;2023-06-10T11:31:40;4.07;;;3.17;;
45842;SDS011;31563;51.744;8.252;2023-06-10T11:34:12;3.45;;;3.15;;
45842;SDS011;31563;51.744;8.252;2023-06-10T11:36:41;3.95;;;3.55;;
45842;SDS011;31563;51.744;8.252;2023-06-10T11:39:12;5.25;;;2.83;;
45842;SDS011;31563;51.744;8.252;2023-06-10T11:41:42;5.20;;;2.93;;
45842;SDS011;31563;51.744;8.252;2023-06-10T11:44:11;7.88;;;3.25;;
45842;SDS011;31563;51.744;8.252;2023-06-10T11:46:44;3.72;;;2.88;;
45842;SDS011;31563;51.744;8.252;2023-06-10T11:49:15;4.40;;;2.83;;
45842;SDS011;31563;51.744;8.252;2023-06-10T11:51:43;4.05;;;2.92;;
45842;SDS011;31563;51.744;8.252;2023-06-10T11:54:16;3.55;;;3.25;;
45842;SDS011;31563;51.744;8.252;2023-06-10T11:56:46;3.27;;;2.93;;
45842;SDS011;31563;51.744;8.252;2023-06-10T11:59:15;3.47;;;2.83;;
45842;SDS011;31563;51.744;8.252;2023-06-10T12:01:44;2.87;;;2.63;;
45842;SDS011;31563;51.744;8.252;2023-06-10T12:04:14;4.03;;;2.95;;
45842;SDS011;31563;51.744;8.252;2023-06-10T12:06:45;3.60;;;2.60;;
45842;SDS011;31563;51.744;8.252;2023-06-10T12:09:15;4.22;;;2.97;;
45842;SDS011;31563;51.744;8.252;2023-06-10T12:11:54;3.15;;;2.85;;
45842;SDS011;31563;51.744;8.252;2023-06-10T12:17:23;3.20;;;2.90;;
45842;SDS011;31563;51.744;8.252;2023-06-10T12:20:05;5.18;;;3.17;;
45842;SDS011;31563;51.744;8.252;2023-06-10T12:22:38;3.30;;;3.00;;
45842;SDS011;31563;51.744;8.252;2023-06-10T12:25:07;3.78;;;3.22;;
45842;SDS011;31563;51.744;8.252;2023-06-10T12:27:39;3.90;;;2.80;;
45842;SDS011;31563;51.744;8.252;2023-06-10T12:30:18;5.00;;;3.10;;
45842;SDS011;31563;51.744;8.252;2023-06-10T12:32:47;4.03;;;3.40;;
45842;SDS011;31563;51.744;8.252;2023-06-10T12:35:16;5.93;;;3.20;;
45842;SDS011;31563;51.744;8.252;2023-06-10T12:37:54;5.30;;;3.20;;
45842;SDS011;31563;51.744;8.252;2023-06-10T12:40:26;4.60;;;3.13;;
45842;SDS011;31563;51.744;8.252;2023-06-10T12:42:57;5.90;;;3.25;;
45842;SDS011;31563;51.744;8.252;2023-06-10T12:45:26;6.47;;;3.00;;
45842;SDS011;31563;51.744;8.252;2023-06-10T12:48:05;6.65;;;3.47;;
45842;SDS011;31563;51.744;8.252;2023-06-10T12:50:36;5.38;;;3.40;;
45842;SDS011;31563;51.744;8.252;2023-06-10T12:55:33;3.55;;;3.25;;
45842;SDS011;31563;51.744;8.252;2023-06-10T12:58:03;3.67;;;3.23;;
45842;SDS011;31563;51.744;8.252;2023-06-10T13:00:31;5.80;;;3.15;;
45842;SDS011;31563;51.744;8.252;2023-06-10T13:03:01;5.55;;;3.10;;
45842;SDS011;31563;51.744;8.252;2023-06-10T13:05:32;3.47;;;3.17;;
45842;SDS011;31563;51.744;8.252;2023-06-10T13:08:01;4.25;;;3.42;;
45842;SDS011;31563;51.744;8.252;2023-06-10T13:10:30;4.53;;;3.53;;
45842;SDS011;31563;51.744;8.252;2023-06-10T13:12:59;4.13;;;3.42;;
45842;SDS011;31563;51.744;8.252;2023-06-10T13:15:29;5.15;;;3.45;;
45842;SDS011;31563;51.744;8.252;2023-06-10T13:17:57;4.40;;;3.55;;
45842;SDS011;31563;51.744;8.252;2023-06-10T13:20:25;8.13;;;3.93;;
45842;SDS011;31563;51.744;8.252;2023-06-10T13:22:53;4.95;;;3.53;;
45842;SDS011;31563;51.744;8.252;2023-06-10T13:25:22;8.10;;;4.25;;
45842;SDS011;31563;51.744;8.252;2023-06-10T13:27:50;5.27;;;3.80;;
45842;SDS011;31563;51.744;8.252;2023-06-10T13:30:18;5.22;;;4.00;;
45842;SDS011;31563;51.744;8.252;2023-06-10T13:32:48;5.07;;;3.27;;
45842;SDS011;31563;51.744;8.252;2023-06-10T13:35:16;6.00;;;3.33;;
45842;SDS011;31563;51.744;8.252;2023-06-10T13:37:44;4.47;;;3.30;;
45842;SDS011;31563;51.744;8.252;2023-06-10T13:40:13;4.25;;;3.13;;
45842;SDS011;31563;51.744;8.252;2023-06-10T13:42:42;3.53;;;3.22;;
45842;SDS011;31563;51.744;8.252;2023-06-10T13:45:10;4.00;;;3.17;;
45842;SDS011;31563;51.744;8.252;2023-06-10T13:47:39;4.65;;;3.13;;
45842;SDS011;31563;51.744;8.252;2023-06-10T13:50:09;5.32;;;3.10;;
45842;SDS011;31563;51.744;8.252;2023-06-10T13:52:37;4.55;;;3.15;;
45842;SDS011;31563;51.744;8.252;2023-06-10T13:55:06;3.83;;;3.05;;
45842;SDS011;31563;51.744;8.252;2023-06-10T13:57:35;4.65;;;3.10;;
45842;SDS011;31563;51.744;8.252;2023-06-10T14:00:04;3.35;;;3.05;;
45842;SDS011;31563;51.744;8.252;2023-06-10T14:02:33;3.00;;;2.80;;
45842;SDS011;31563;51.744;8.252;2023-06-10T14:05:01;6.13;;;3.33;;
45842;SDS011;31563;51.744;8.252;2023-06-10T14:07:31;5.03;;;2.92;;
45842;SDS011;31563;51.744;8.252;2023-06-10T14:09:59;4.05;;;3.25;;
45842;SDS011;31563;51.744;8.252;2023-06-10T14:12:27;4.40;;;3.10;;
45842;SDS011;31563;51.744;8.252;2023-06-10T14:14:55;5.25;;;3.10;;
45842;SDS011;31563;51.744;8.252;2023-06-10T14:17:23;4.03;;;3.10;;
45842;SDS011;31563;51.744;8.252;2023-06-10T14:19:51;6.20;;;3.47;;
45842;SDS011;31563;51.744;8.252;2023-06-10T14:22:19;3.67;;;3.38;;
45842;SDS011;31563;51.744;8.252;2023-06-10T14:24:49;5.65;;;3.13;;
45842;SDS011;31563;51.744;8.252;2023-06-10T14:27:17;4.50;;;3.00;;
45842;SDS011;31563;51.744;8.252;2023-06-10T14:29:46;3.92;;;3.00;;
45842;SDS011;31563;51.744;8.252;2023-06-10T14:32:14;3.80;;;2.80;;
45842;SDS011;31563;51.744;8.252;2023-06-10T14:34:42;2.80;;;2.60;;
45842;SDS011;31563;51.744;8.252;2023-06-10T14:37:13;2.88;;;2.60;;
45842;SDS011;31563;51.744;8.252;2023-06-10T14:39:41;3.03;;;2.72;;
45842;SDS011;31563;51.744;8.252;2023-06-10T14:42:10;3.63;;;3.13;;
45842;SDS011;31563;51.744;8.252;2023-06-10T14:44:39;4.82;;;2.83;;
45842;SDS011;31563;51.744;8.252;2023-06-10T14:47:07;4.78;;;3.03;;
45842;SDS011;31563;51.744;8.252;2023-06-10T14:49:35;3.20;;;2.97;;
45842;SDS011;31563;51.744;8.252;2023-06-10T14:52:03;3.03;;;2.47;;
45842;SDS011;31563;51.744;8.252;2023-06-10T14:54:32;4.18;;;2.92;;
45842;SDS011;31563;51.744;8.252;2023-06-10T14:57:00;5.07;;;3.00;;
45842;SDS011;31563;51.744;8.252;2023-06-10T14:59:30;3.27;;;3.03;;
45842;SDS011;31563;51.744;8.252;2023-06-10T15:01:58;3.30;;;2.55;;
45842;SDS011;31563;51.744;8.252;2023-06-10T15:04:27;3.90;;;3.15;;
45842;SDS011;31563;51.744;8.252;2023-06-10T15:06:55;4.37;;;2.60;;
45842;SDS011;31563;51.744;8.252;2023-06-10T15:09:24;4.75;;;2.95;;
45842;SDS011;31563;51.744;8.252;2023-06-10T15:11:52;3.38;;;2.65;;
45842;SDS011;31563;51.744;8.252;2023-06-10T15:14:20;3.77;;;2.83;;
45842;SDS011;31563;51.744;8.252;2023-06-10T15:16:50;2.85;;;2.22;;
45842;SDS011;31563;51.744;8.252;2023-06-10T15:19:18;3.00;;;2.45;;
45842;SDS011;31563;51.744;8.252;2023-06-10T15:21:46;2.93;;;2.37;;
45842;SDS011;31563;51.744;8.252;2023-06-10T15:24:14;2.83;;;2.40;;
45842;SDS011;31563;51.744;8.252;2023-06-10T15:26:43;4.22;;;2.60;;
45842;SDS011;31563;51.744;8.252;2023-06-10T15:29:11;2.17;;;1.98;;
45842;SDS011;31563;51.744;8.252;2023-06-10T15:31:39;2.53;;;2.03;;
45842;SDS011;31563;51.744;8.252;2023-06-10T15:34:09;2.90;;;2.60;;
45842;SDS011;31563;51.744;8.252;2023-06-10T15:36:37;2.88;;;2.25;;
45842;SDS011;31563;51.744;8.252;2023-06-10T15:39:05;3.00;;;2.27;;
45842;SDS011;31563;51.744;8.252;2023-06-10T15:41:34;3.17;;;2.75;;
45842;SDS011;31563;51.744;8.252;2023-06-10T15:44:02;3.90;;;2.20;;